Terminal Aerodrome Forecast
Issued by NWS

Home | Current Version | Previous Version | Text Only | Print | Product List | Glossary Off
Versions: 1 2 3 4 5 6 7 8 9 10 11 12

000
FTUS41 KCLE 310535
TAFFDY
TAF
KFDY 310535Z 3106/0106 24006KT P6SM SCT080
     FM311600 26014G22KT P6SM SCT050
     FM312200 28010KT P6SM VCTS SCT050CB BKN150
     FM010100 24006KT P6SM SKC=

USA.gov is the U.S. government's official web portal to all federal, state and local government web resources and services.